PWSweather.com
Personal Weather Stations
Station Observations
INORDPAS37
Bondues, BonduesFR 59910

BonduesBonduesFR 59910

Lat: 50.7, Lon: 3.09

Elevation: 66

Station Type: NetAtmo

High Low Average
Temperature 62.4°F16.9°F 52.9°F11.6°F 56.0°F13.3°F
Dew Point 47.7°F8.7°F 39.0°F3.9°F 42.5°F5.8°F
Winds 8.1 mph SW13.0 mph SW 1.2 mph 1.9 mph 4.6 mph 7.4 mph
Wind Gusts 27.3 mph43.9 mph -- 8.5 mph13.7 mph
Humidity 71% 57% 65%
Pressure 29.93 in1013.50 in 29.67 in1004.70 in -
Precipitation 1.06 in26.90 in - -
Hour Temp Dew Point Humidity Winds Wind Gusts Pressure Precip Precip Rate Daily Precip Total
12:14 AM 62.4°F16.9°C 47.7°F8.7°C 63% 3.8 mph SSW6.1 kmh SSW 10.5 mph16.9 kmh 29.70 in1005.8 mb 0.00 in0.0 mm 0.00 in0.0 mm 0.00 in0.0 mm
12:34 AM 62.2°F16.8°C 47.5°F8.6°C 63% 4.3 mph SSW6.9 kmh SSW 8.1 mph13.0 kmh 29.70 in1005.8 mb 0.00 in0.0 mm 0.00 in0.0 mm 0.00 in0.0 mm
12:51 AM 62.2°F16.8°C 47.5°F8.6°C 63% 4.3 mph SSW6.9 kmh SSW -- 29.70 in1005.8 mb 0.00 in0.0 mm 0.00 in0.0 mm 0.00 in0.0 mm
12:54 AM 61.9°F16.6°C 47.1°F8.4°C 63% 4.3 mph SSW6.9 kmh SSW 13.0 mph20.9 kmh 29.69 in1005.4 mb 0.00 in0.0 mm 0.00 in0.0 mm 0.00 in0.0 mm
01:14 AM 61.3°F16.3°C 46.9°F8.3°C 64% 3.1 mph S5.0 kmh S 11.9 mph19.2 kmh 29.68 in1005.1 mb 0.00 in0.0 mm 0.00 in0.0 mm 0.00 in0.0 mm
01:43 AM 60.8°F16.0°C 46.6°F8.1°C 64% 5.0 mph S8.0 kmh S -- 29.69 in1005.4 mb 0.00 in0.0 mm 0.00 in0.0 mm 0.00 in0.0 mm
02:01 AM 60.6°F15.9°C 46.8°F8.2°C 65% 4.9 mph SW7.9 kmh SW 13.0 mph20.9 kmh 29.70 in1005.8 mb 0.01 in0.3 mm 0.02 in0.5 mm 0.01 in0.3 mm
02:21 AM 59.4°F15.2°C 45.5°F7.5°C 65% 3.1 mph S5.0 kmh S 8.1 mph13.0 kmh 29.68 in1005.1 mb 0.04 in1.0 mm 0.08 in2.0 mm 0.04 in1.0 mm
02:42 AM 58.5°F14.7°C 45.1°F7.3°C 66% 5.0 mph SSW8.0 kmh SSW -- 29.69 in1005.4 mb 0.08 in2.0 mm 0.10 in2.5 mm 0.08 in2.0 mm
03:01 AM 57.6°F14.2°C 45.0°F7.2°C 68% 6.9 mph SW11.1 kmh SW 15.4 mph24.8 kmh 29.68 in1005.1 mb 0.13 in3.3 mm 0.08 in2.0 mm 0.14 in3.6 mm
03:22 AM 57.0°F13.9°C 44.4°F6.9°C 68% 3.8 mph SW6.1 kmh SW 7.4 mph11.9 kmh 29.68 in1005.1 mb 0.16 in4.1 mm 0.07 in1.8 mm 0.19 in4.8 mm
03:42 AM 57.0°F13.9°C 45.0°F7.2°C 69% 3.7 mph SW6.0 kmh SW -- 29.67 in1004.7 mb 0.14 in3.6 mm 0.00 in0.0 mm 0.21 in5.3 mm
04:03 AM 56.8°F13.8°C 45.1°F7.3°C 70% 6.9 mph SW11.1 kmh SW 18.1 mph29.1 kmh 29.67 in1004.7 mb 0.09 in2.3 mm 0.00 in0.0 mm 0.23 in5.8 mm
04:22 AM 56.7°F13.7°C 45.0°F7.2°C 70% 4.9 mph WSW7.9 kmh WSW 11.2 mph18.0 kmh 29.67 in1004.7 mb 0.14 in3.6 mm 0.15 in3.8 mm 0.33 in8.4 mm
04:43 AM 56.5°F13.6°C 44.8°F7.1°C 70% 3.7 mph WSW6.0 kmh WSW -- 29.68 in1005.1 mb 0.13 in3.3 mm 0.00 in0.0 mm 0.34 in8.6 mm
05:03 AM 56.3°F13.5°C 44.6°F7.0°C 70% 4.3 mph WSW6.9 kmh WSW 9.8 mph15.8 kmh 29.68 in1005.1 mb 0.11 in2.8 mm 0.00 in0.0 mm 0.34 in8.6 mm
05:14 AM 56.1°F13.4°C 44.4°F6.9°C 70% 4.3 mph WSW6.9 kmh WSW 9.8 mph15.8 kmh 29.69 in1005.4 mb 0.01 in0.3 mm 0.00 in0.0 mm 0.34 in8.6 mm
05:33 AM 55.6°F13.1°C 43.9°F6.6°C 70% 4.3 mph SW6.9 kmh SW 11.9 mph19.2 kmh 29.69 in1005.4 mb 0.00 in0.0 mm 0.00 in0.0 mm 0.34 in8.6 mm
05:51 AM 55.6°F13.1°C 43.9°F6.6°C 70% 4.3 mph SW6.9 kmh SW -- 29.69 in1005.4 mb 0.00 in0.0 mm 0.00 in0.0 mm 0.34 in8.6 mm
05:54 AM 54.7°F12.6°C 43.5°F6.4°C 71% 4.9 mph SW7.9 kmh SW 10.5 mph16.9 kmh 29.70 in1005.8 mb 0.00 in0.0 mm 0.00 in0.0 mm 0.34 in8.6 mm
06:14 AM 54.0°F12.2°C 42.8°F6.0°C 71% 3.1 mph SW5.0 kmh SW 10.5 mph16.9 kmh 29.70 in1005.8 mb 0.00 in0.0 mm 0.00 in0.0 mm 0.34 in8.6 mm
06:35 AM 53.6°F12.0°C 42.4°F5.8°C 71% 3.1 mph SW5.0 kmh SW 8.7 mph14.0 kmh 29.71 in1006.1 mb 0.00 in0.0 mm 0.00 in0.0 mm 0.34 in8.6 mm
06:51 AM 53.6°F12.0°C 42.4°F5.8°C 71% 3.1 mph SW5.0 kmh SW -- 29.71 in1006.1 mb 0.00 in0.0 mm 0.00 in0.0 mm 0.34 in8.6 mm
06:55 AM 53.4°F11.9°C 42.3°F5.7°C 71% 4.9 mph SW7.9 kmh SW 13.6 mph21.9 kmh 29.71 in1006.1 mb 0.00 in0.0 mm 0.00 in0.0 mm 0.34 in8.6 mm
07:15 AM 53.1°F11.7°C 41.9°F5.5°C 71% 4.9 mph SW7.9 kmh SW 13.6 mph21.9 kmh 29.72 in1006.4 mb 0.00 in0.0 mm 0.00 in0.0 mm 0.34 in8.6 mm
07:36 AM 52.9°F11.6°C 41.7°F5.4°C 71% 5.6 mph SW9.0 kmh SW 11.9 mph19.2 kmh 29.72 in1006.4 mb 0.00 in0.0 mm 0.00 in0.0 mm 0.34 in8.6 mm
07:51 AM 52.9°F11.6°C 41.7°F5.4°C 71% 5.6 mph SW9.0 kmh SW -- 29.72 in1006.4 mb 0.00 in0.0 mm 0.00 in0.0 mm 0.34 in8.6 mm
07:55 AM 52.9°F11.6°C 41.7°F5.4°C 71% 5.6 mph SW9.0 kmh SW 13.0 mph20.9 kmh 29.73 in1006.8 mb 0.00 in0.0 mm 0.00 in0.0 mm 0.34 in8.6 mm
08:16 AM 53.1°F11.7°C 41.9°F5.5°C 71% 4.3 mph SW6.9 kmh SW 18.1 mph29.1 kmh 29.74 in1007.1 mb 0.00 in0.0 mm 0.00 in0.0 mm 0.34 in8.6 mm
08:36 AM 53.2°F11.8°C 41.7°F5.4°C 70% 7.4 mph SW11.9 kmh SW 15.0 mph24.1 kmh 29.75 in1007.5 mb 0.00 in0.0 mm 0.00 in0.0 mm 0.34 in8.6 mm
08:51 AM 53.2°F11.8°C 41.7°F5.4°C 70% 7.5 mph SW12.1 kmh SW -- 29.75 in1007.5 mb 0.00 in0.0 mm 0.00 in0.0 mm 0.34 in8.6 mm
08:56 AM 53.4°F11.9°C 41.9°F5.5°C 70% 6.9 mph SW11.1 kmh SW 15.0 mph24.1 kmh 29.76 in1007.8 mb 0.00 in0.0 mm 0.00 in0.0 mm 0.34 in8.6 mm
09:15 AM 53.8°F12.1°C 42.3°F5.7°C 70% 5.6 mph SW9.0 kmh SW 17.4 mph28.0 kmh 29.76 in1007.8 mb 0.00 in0.0 mm 0.00 in0.0 mm 0.34 in8.6 mm
09:35 AM 54.0°F12.2°C 41.9°F5.5°C 69% 5.6 mph SW9.0 kmh SW 13.0 mph20.9 kmh 29.77 in1008.1 mb 0.00 in0.0 mm 0.00 in0.0 mm 0.34 in8.6 mm
09:51 AM 54.0°F12.2°C 41.9°F5.5°C 69% 5.6 mph SW9.0 kmh SW -- 29.77 in1008.1 mb 0.00 in0.0 mm 0.00 in0.0 mm 0.34 in8.6 mm
09:56 AM 54.3°F12.4°C 42.3°F5.7°C 69% 4.9 mph SW7.9 kmh SW 13.0 mph20.9 kmh 29.77 in1008.1 mb 0.00 in0.0 mm 0.00 in0.0 mm 0.34 in8.6 mm
10:15 AM 54.3°F12.4°C 42.3°F5.7°C 69% 6.9 mph SW11.1 kmh SW 16.1 mph25.9 kmh 29.78 in1008.5 mb 0.00 in0.0 mm 0.00 in0.0 mm 0.34 in8.6 mm
10:40 AM 54.3°F12.4°C 42.3°F5.7°C 69% 5.6 mph WSW9.0 kmh WSW -- 29.79 in1008.8 mb 0.00 in0.0 mm 0.00 in0.0 mm 0.34 in8.6 mm
11:00 AM 54.7°F12.6°C 42.6°F5.9°C 69% 6.9 mph SW11.1 kmh SW 14.3 mph23.0 kmh 29.79 in1008.8 mb 0.00 in0.0 mm 0.00 in0.0 mm 0.34 in8.6 mm
11:23 AM 55.4°F13.0°C 43.3°F6.3°C 69% 7.4 mph SW11.9 kmh SW 18.1 mph29.1 kmh 29.81 in1009.5 mb 0.00 in0.0 mm 0.00 in0.0 mm 0.34 in8.6 mm
11:43 AM 55.2°F12.9°C 43.2°F6.2°C 69% 7.5 mph SW12.1 kmh SW -- 29.82 in1009.8 mb 0.00 in0.0 mm 0.00 in0.0 mm 0.34 in8.6 mm
12:03 PM 54.9°F12.7°C 43.2°F6.2°C 70% 7.4 mph SW11.9 kmh SW 16.8 mph27.0 kmh 29.83 in1010.2 mb 0.00 in0.0 mm 0.00 in0.0 mm 0.34 in8.6 mm
12:13 PM 54.5°F12.5°C 42.8°F6.0°C 70% 5.6 mph SW9.0 kmh SW 12.5 mph20.1 kmh 29.83 in1010.2 mb 0.01 in0.3 mm 0.05 in1.3 mm 0.35 in8.9 mm
12:34 PM 54.5°F12.5°C 43.3°F6.3°C 71% 5.6 mph SW9.0 kmh SW 13.0 mph20.9 kmh 29.82 in1009.8 mb 0.01 in0.3 mm 0.00 in0.0 mm 0.35 in8.9 mm
12:51 PM 54.5°F12.5°C 43.3°F6.3°C 71% 5.6 mph SW9.0 kmh SW -- 29.82 in1009.8 mb 0.01 in0.3 mm 0.00 in0.0 mm 0.35 in8.9 mm
12:58 PM 56.5°F13.6°C 45.1°F7.3°C 71% 6.9 mph SW11.1 kmh SW 22.4 mph36.0 kmh 29.82 in1009.8 mb 0.01 in0.3 mm 0.00 in0.0 mm 0.35 in8.9 mm
01:18 PM 56.8°F13.8°C 44.4°F6.9°C 68% 8.1 mph SW13.0 kmh SW 18.6 mph29.9 kmh 29.84 in1010.5 mb 0.00 in0.0 mm 0.00 in0.0 mm 0.35 in8.9 mm
01:38 PM 57.9°F14.4°C 43.7°F6.5°C 64% 7.5 mph WSW12.1 kmh WSW -- 29.83 in1010.2 mb 0.00 in0.0 mm 0.00 in0.0 mm 0.35 in8.9 mm
01:56 PM 58.8°F14.9°C 43.9°F6.6°C 62% 7.4 mph WSW11.9 kmh WSW 27.3 mph43.9 kmh 29.84 in1010.5 mb 0.00 in0.0 mm 0.00 in0.0 mm 0.35 in8.9 mm
02:20 PM 59.4°F15.2°C 43.2°F6.2°C 59% 6.9 mph W11.1 kmh W 21.0 mph33.8 kmh 29.84 in1010.5 mb 0.00 in0.0 mm 0.00 in0.0 mm 0.35 in8.9 mm
02:39 PM 59.2°F15.1°C 42.6°F5.9°C 58% 7.5 mph WSW12.1 kmh WSW -- 29.85 in1010.8 mb 0.00 in0.0 mm 0.00 in0.0 mm 0.35 in8.9 mm
03:00 PM 59.5°F15.3°C 42.8°F6.0°C 58% 5.6 mph WSW9.0 kmh WSW 15.0 mph24.1 kmh 29.86 in1011.2 mb 0.00 in0.0 mm 0.00 in0.0 mm 0.35 in8.9 mm
03:20 PM 60.3°F15.7°C 43.5°F6.4°C 58% 4.3 mph WSW6.9 kmh WSW 13.0 mph20.9 kmh 29.87 in1011.5 mb 0.00 in0.0 mm 0.00 in0.0 mm 0.35 in8.9 mm
03:40 PM 60.3°F15.7°C 43.2°F6.2°C 57% 5.6 mph WSW9.0 kmh WSW -- 29.87 in1011.5 mb 0.00 in0.0 mm 0.00 in0.0 mm 0.35 in8.9 mm
04:01 PM 59.5°F15.3°C 42.4°F5.8°C 57% 7.4 mph SW11.9 kmh SW 19.9 mph32.0 kmh 29.88 in1011.9 mb 0.00 in0.0 mm 0.00 in0.0 mm 0.35 in8.9 mm
04:21 PM 58.8°F14.9°C 42.3°F5.7°C 58% 4.3 mph WSW6.9 kmh WSW 9.8 mph15.8 kmh 29.89 in1012.2 mb 0.00 in0.0 mm 0.00 in0.0 mm 0.35 in8.9 mm
04:41 PM 58.5°F14.7°C 41.9°F5.5°C 58% 5.6 mph WSW9.0 kmh WSW -- 29.89 in1012.2 mb 0.00 in0.0 mm 0.00 in0.0 mm 0.35 in8.9 mm
05:01 PM 57.9°F14.4°C 41.4°F5.2°C 58% 4.9 mph WSW7.9 kmh WSW 11.9 mph19.2 kmh 29.90 in1012.5 mb 0.00 in0.0 mm 0.00 in0.0 mm 0.35 in8.9 mm
05:22 PM 57.6°F14.2°C 41.0°F5.0°C 58% 4.3 mph WSW6.9 kmh WSW 9.8 mph15.8 kmh 29.90 in1012.5 mb 0.00 in0.0 mm 0.00 in0.0 mm 0.35 in8.9 mm
05:42 PM 56.8°F13.8°C 40.8°F4.9°C 59% 3.7 mph SW6.0 kmh SW -- 29.91 in1012.9 mb 0.00 in0.0 mm 0.00 in0.0 mm 0.35 in8.9 mm
06:03 PM 56.7°F13.7°C 40.6°F4.8°C 59% 3.1 mph SW5.0 kmh SW 6.9 mph11.1 kmh 29.91 in1012.9 mb 0.00 in0.0 mm 0.00 in0.0 mm 0.35 in8.9 mm
06:22 PM 56.3°F13.5°C 40.6°F4.8°C 60% 3.1 mph SW5.0 kmh SW 8.1 mph13.0 kmh 29.91 in1012.9 mb 0.00 in0.0 mm 0.00 in0.0 mm 0.35 in8.9 mm
06:43 PM 55.8°F13.2°C 40.1°F4.5°C 60% 1.9 mph SW3.1 kmh SW -- 29.92 in1013.2 mb 0.00 in0.0 mm 0.00 in0.0 mm 0.35 in8.9 mm
07:03 PM 55.4°F13.0°C 40.1°F4.5°C 61% 3.1 mph SW5.0 kmh SW 7.4 mph11.9 kmh 29.92 in1013.2 mb 0.00 in0.0 mm 0.00 in0.0 mm 0.35 in8.9 mm
07:23 PM 55.4°F13.0°C 40.1°F4.5°C 61% 3.1 mph SW5.0 kmh SW 8.1 mph13.0 kmh 29.93 in1013.5 mb 0.00 in0.0 mm 0.00 in0.0 mm 0.35 in8.9 mm
07:33 PM 55.2°F12.9°C 40.1°F4.5°C 61% 2.5 mph SW4.0 kmh SW 7.4 mph11.9 kmh 29.93 in1013.5 mb 0.00 in0.0 mm 0.00 in0.0 mm 0.35 in8.9 mm
07:51 PM 55.2°F12.9°C 40.1°F4.5°C 61% 2.5 mph SW4.0 kmh SW -- 29.93 in1013.5 mb 0.00 in0.0 mm 0.00 in0.0 mm 0.35 in8.9 mm
07:57 PM 54.7°F12.6°C 39.9°F4.4°C 62% 2.5 mph SW4.0 kmh SW 7.4 mph11.9 kmh 29.92 in1013.2 mb 0.00 in0.0 mm 0.00 in0.0 mm 0.35 in8.9 mm
08:17 PM 54.5°F12.5°C 39.7°F4.3°C 62% 3.1 mph SW5.0 kmh SW 9.4 mph15.1 kmh 29.91 in1012.9 mb 0.00 in0.0 mm 0.00 in0.0 mm 0.35 in8.9 mm
08:37 PM 54.1°F12.3°C 39.7°F4.3°C 63% 3.1 mph SW5.0 kmh SW -- 29.91 in1012.9 mb 0.00 in0.0 mm 0.00 in0.0 mm 0.35 in8.9 mm
08:58 PM 54.0°F12.2°C 39.6°F4.2°C 63% 2.5 mph SW4.0 kmh SW 9.4 mph15.1 kmh 29.92 in1013.2 mb 0.00 in0.0 mm 0.00 in0.0 mm 0.35 in8.9 mm
09:18 PM 53.8°F12.1°C 39.4°F4.1°C 63% 3.1 mph SW5.0 kmh SW 7.4 mph11.9 kmh 29.91 in1012.9 mb 0.00 in0.0 mm 0.00 in0.0 mm 0.35 in8.9 mm
09:36 PM 53.6°F12.0°C 39.2°F4.0°C 63% 1.3 mph SSW2.1 kmh SSW 4.9 mph7.9 kmh 29.91 in1012.9 mb 0.00 in0.0 mm 0.00 in0.0 mm 0.35 in8.9 mm
09:51 PM 53.6°F12.0°C 39.2°F4.0°C 63% 1.2 mph SSW1.9 kmh SSW -- 29.91 in1012.9 mb 0.00 in0.0 mm 0.00 in0.0 mm 0.35 in8.9 mm
09:57 PM 53.4°F11.9°C 39.0°F3.9°C 63% 3.1 mph SW5.0 kmh SW 9.8 mph15.8 kmh 29.91 in1012.9 mb 0.00 in0.0 mm 0.00 in0.0 mm 0.35 in8.9 mm
10:17 PM 53.4°F11.9°C 39.0°F3.9°C 63% 2.5 mph SSW4.0 kmh SSW 6.9 mph11.1 kmh 29.90 in1012.5 mb 0.00 in0.0 mm 0.00 in0.0 mm 0.35 in8.9 mm
10:38 PM 53.4°F11.9°C 39.0°F3.9°C 63% 3.1 mph SSW5.0 kmh SSW -- 29.89 in1012.2 mb 0.00 in0.0 mm 0.00 in0.0 mm 0.35 in8.9 mm
10:55 PM 53.4°F11.9°C 39.0°F3.9°C 63% 2.5 mph S4.0 kmh S 4.3 mph6.9 kmh 29.89 in1012.2 mb 0.00 in0.0 mm 0.00 in0.0 mm 0.21 in5.3 mm
11:15 PM 53.4°F11.9°C 39.6°F4.2°C 64% 2.5 mph S4.0 kmh S 5.6 mph9.0 kmh 29.89 in1012.2 mb 0.00 in0.0 mm 0.00 in0.0 mm 0.21 in5.3 mm
11:35 PM 53.2°F11.8°C 39.4°F4.1°C 64% 1.8 mph S2.9 kmh S 4.9 mph7.9 kmh 29.88 in1011.9 mb 0.00 in0.0 mm 0.00 in0.0 mm 0.21 in5.3 mm
11:51 PM 53.2°F11.8°C 39.4°F4.1°C 64% 1.9 mph S3.1 kmh S -- 29.88 in1011.9 mb 0.00 in0.0 mm 0.00 in0.0 mm 0.21 in5.3 mm
11:56 PM 52.9°F11.6°C 39.0°F3.9°C 64% 2.5 mph S4.0 kmh S 9.4 mph15.1 kmh 29.88 in1011.9 mb 0.00 in0.0 mm 0.00 in0.0 mm 0.21 in5.3 mm